ENHV/HVG METAR and TAF weather

Enter ICAO airport designator
Station Type Date Time Source
ENHV METAR 2019/10/20 17:50 UTC NOAA

ENHV 201750Z 20019KT CAVOK M00/M06 Q1009


Station Type Date Time Source
ENHV Decoded METAR 2019/10/20 17:50 UTC NOAA

Honningsvag / Valan, Norway (ENHV) 71-01N 025-59E 14M
Oct 20, 2019 - 01:50 PM EDT / 2019.10.20 1750 UTC
Wind: from the SSW (200 degrees) at 22 MPH (19 KT):0
Visibility: greater than 7 mile(s):0
Temperature: 32 F (0 C)
Windchill: 19 F (-7 C):1
Dew Point: 21 F (-6 C)
Relative Humidity: 63%
Pressure (altimeter): 29.80 in. Hg (1009 hPa)
ob: ENHV 201750Z 20019KT CAVOK M00/M06 Q1009
cycle: 18

Station Type Date Time Source
ENHV TAF UTC NOAA

Error!

Example: see airport list